Avioradar koristi kolačiće da bi Vam omogućio jednostavnije i ugodnije korištenje stranice. 

AVIORADAR - Croatian aviation website

METAR & TAF

[Source: ADDS]
METAR
LDZA 231830Z 08003KT 040V120 CAVOK 22/16 Q1015 NOSIG =
LDZA 231725Z 2318/2418 VRB02KT CAVOK TX30/2413Z TN15/2403Z PROB30 TEMPO 2401/2405 1500 BCFG LDSP 231830Z 19004KT 100V230 CAVOK 26/17 Q1012 NOSIG =
LDSP 231725Z 2318/2418 32005KT CAVOK TX31/2413Z TN22/2403Z BECMG 2409/2411 23010KT BECMG 2416/2418 32005KT LDDU 231830Z 30006KT CAVOK 24/13 Q1013 NOSIG =
LDDU 231725Z 2318/2418 28005KT CAVOK TX29/2412Z TN23/2403Z BECMG 2319/2321 02010KT BECMG 2407/2409 19008KT BECMG 2412/2414 29007KT LDPL 231830Z 25001KT CAVOK 25/18 Q1014 NOSIG =
LDPL 231725Z 2318/2418 09005KT CAVOK TX30/2413Z TN19/2403Z PROB40 TEMPO 2412/2418 23008KT LDZD 231830Z 31006KT CAVOK 25/15 Q1013 NOSIG =
LDZD 231725Z 2318/2418 33005KT CAVOK TX32/2413Z TN17/2403Z BECMG 2409/2411 26008KT LDRI 231830Z VRB02KT CAVOK 26/16 Q1014 =
LDRI 231725Z 2318/2418 07005KT CAVOK TX30/2413Z TN21/2403Z LDOS 231830Z 11003KT CAVOK 23/15 Q1014 =
LDOS 231725Z 2318/2418 VRB02KT CAVOK TX30/2413Z TN14/2403Z BECMG 2410/2412 11008KT
TAF
LDZA 231725Z 2318/2418 VRB02KT CAVOK TX30/2413Z TN15/2403Z PROB30 TEMPO 2401/2405 1500 BCFG =
LDSP 231725Z 2318/2418 32005KT CAVOK TX31/2413Z TN22/2403Z BECMG 2409/2411 23010KT BECMG 2416/2418 32005KT =
LDDU 231725Z 2318/2418 28005KT CAVOK TX29/2412Z TN23/2403Z BECMG 2319/2321 02010KT BECMG 2407/2409 19008KT BECMG 2412/2414 29007KT =
LDPL 231725Z 2318/2418 09005KT CAVOK TX30/2413Z TN19/2403Z PROB40 TEMPO 2412/2418 23008KT =
LDZD 231725Z 2318/2418 33005KT CAVOK TX32/2413Z TN17/2403Z BECMG 2409/2411 26008KT =
LDRI 231725Z 2318/2418 07005KT CAVOK TX30/2413Z TN21/2403Z =
LDOS 231725Z 2318/2418 VRB02KT CAVOK TX30/2413Z TN14/2403Z BECMG 2410/2412 11008KT =
SR / SS: 03:29 / 18:34 UTC (Zagreb 2021-07-23)